sensor_id;sensor_type;location;lat;lon;timestamp;P1;durP1;ratioP1;P2;durP2;ratioP2
15183;SDS011;7693;49.266;7.104;2023-05-25T04:25:41;6.70;;;4.43;;
15183;SDS011;7693;49.266;7.104;2023-05-25T04:28:06;7.77;;;4.70;;
15183;SDS011;7693;49.266;7.104;2023-05-25T04:30:32;5.67;;;4.87;;
15183;SDS011;7693;49.266;7.104;2023-05-25T04:32:59;6.43;;;4.30;;
15183;SDS011;7693;49.266;7.104;2023-05-25T04:35:26;7.57;;;4.70;;
15183;SDS011;7693;49.266;7.104;2023-05-25T04:37:52;8.47;;;4.57;;
15183;SDS011;7693;49.266;7.104;2023-05-25T04:40:18;5.27;;;4.20;;
15183;SDS011;7693;49.266;7.104;2023-05-25T04:42:45;5.53;;;4.53;;
15183;SDS011;7693;49.266;7.104;2023-05-25T04:45:11;6.27;;;4.13;;
15183;SDS011;7693;49.266;7.104;2023-05-25T04:47:41;6.87;;;4.27;;
15183;SDS011;7693;49.266;7.104;2023-05-25T04:50:08;6.83;;;4.67;;
15183;SDS011;7693;49.266;7.104;2023-05-25T04:52:34;5.13;;;4.37;;
15183;SDS011;7693;49.266;7.104;2023-05-25T04:55:00;6.40;;;4.43;;
15183;SDS011;7693;49.266;7.104;2023-05-25T04:57:27;7.63;;;4.40;;
15183;SDS011;7693;49.266;7.104;2023-05-25T04:59:54;4.00;;;3.70;;
15183;SDS011;7693;49.266;7.104;2023-05-25T05:02:20;7.53;;;4.50;;
15183;SDS011;7693;49.266;7.104;2023-05-25T05:04:45;6.60;;;4.83;;
15183;SDS011;7693;49.266;7.104;2023-05-25T05:07:11;6.47;;;4.33;;
15183;SDS011;7693;49.266;7.104;2023-05-25T05:09:36;5.27;;;4.10;;
15183;SDS011;7693;49.266;7.104;2023-05-25T05:12:02;7.73;;;4.47;;
15183;SDS011;7693;49.266;7.104;2023-05-25T05:14:28;8.77;;;4.90;;
15183;SDS011;7693;49.266;7.104;2023-05-25T05:16:53;8.17;;;4.73;;
15183;SDS011;7693;49.266;7.104;2023-05-25T05:19:19;7.10;;;4.43;;
15183;SDS011;7693;49.266;7.104;2023-05-25T05:21:45;6.67;;;4.50;;
15183;SDS011;7693;49.266;7.104;2023-05-25T05:24:10;7.90;;;4.30;;
15183;SDS011;7693;49.266;7.104;2023-05-25T05:26:37;9.37;;;4.83;;
15183;SDS011;7693;49.266;7.104;2023-05-25T05:29:03;6.33;;;4.07;;
15183;SDS011;7693;49.266;7.104;2023-05-25T05:31:29;8.47;;;4.87;;
15183;SDS011;7693;49.266;7.104;2023-05-25T05:33:55;11.00;;;3.90;;
15183;SDS011;7693;49.266;7.104;2023-05-25T05:36:21;6.63;;;4.00;;
15183;SDS011;7693;49.266;7.104;2023-05-25T05:38:46;6.63;;;4.07;;
15183;SDS011;7693;49.266;7.104;2023-05-25T05:41:12;5.67;;;4.10;;
15183;SDS011;7693;49.266;7.104;2023-05-25T05:43:41;7.03;;;4.43;;
15183;SDS011;7693;49.266;7.104;2023-05-25T05:46:10;4.83;;;3.93;;
15183;SDS011;7693;49.266;7.104;2023-05-25T05:48:36;6.43;;;3.93;;
15183;SDS011;7693;49.266;7.104;2023-05-25T05:51:04;6.73;;;4.63;;
15183;SDS011;7693;49.266;7.104;2023-05-25T05:53:30;8.67;;;4.10;;
15183;SDS011;7693;49.266;7.104;2023-05-25T05:55:56;7.13;;;4.30;;
15183;SDS011;7693;49.266;7.104;2023-05-25T05:58:26;7.37;;;4.13;;
15183;SDS011;7693;49.266;7.104;2023-05-25T06:00:53;6.60;;;4.07;;
15183;SDS011;7693;49.266;7.104;2023-05-25T06:03:20;7.67;;;3.80;;
15183;SDS011;7693;49.266;7.104;2023-05-25T06:05:46;7.40;;;4.10;;
15183;SDS011;7693;49.266;7.104;2023-05-25T06:08:12;5.27;;;3.70;;
15183;SDS011;7693;49.266;7.104;2023-05-25T06:10:38;9.47;;;4.23;;
15183;SDS011;7693;49.266;7.104;2023-05-25T06:13:04;9.83;;;4.50;;
15183;SDS011;7693;49.266;7.104;2023-05-25T06:15:33;8.13;;;3.80;;
15183;SDS011;7693;49.266;7.104;2023-05-25T06:17:59;10.93;;;4.47;;
15183;SDS011;7693;49.266;7.104;2023-05-25T06:20:26;7.23;;;4.00;;
15183;SDS011;7693;49.266;7.104;2023-05-25T06:22:51;8.87;;;4.00;;
15183;SDS011;7693;49.266;7.104;2023-05-25T06:25:17;10.93;;;4.57;;
15183;SDS011;7693;49.266;7.104;2023-05-25T06:27:44;7.20;;;3.90;;
15183;SDS011;7693;49.266;7.104;2023-05-25T06:30:10;6.87;;;4.10;;
15183;SDS011;7693;49.266;7.104;2023-05-25T06:32:35;6.37;;;4.10;;
15183;SDS011;7693;49.266;7.104;2023-05-25T06:35:01;9.40;;;4.37;;
15183;SDS011;7693;49.266;7.104;2023-05-25T06:37:27;7.57;;;4.00;;
15183;SDS011;7693;49.266;7.104;2023-05-25T06:39:59;6.97;;;3.80;;
15183;SDS011;7693;49.266;7.104;2023-05-25T06:42:25;10.20;;;3.90;;
15183;SDS011;7693;49.266;7.104;2023-05-25T06:44:51;5.47;;;3.90;;
15183;SDS011;7693;49.266;7.104;2023-05-25T06:47:17;6.93;;;3.80;;
15183;SDS011;7693;49.266;7.104;2023-05-25T06:49:42;6.83;;;4.00;;
15183;SDS011;7693;49.266;7.104;2023-05-25T06:52:08;7.03;;;3.30;;
15183;SDS011;7693;49.266;7.104;2023-05-25T06:54:33;7.00;;;3.77;;
15183;SDS011;7693;49.266;7.104;2023-05-25T06:56:59;6.47;;;4.17;;
15183;SDS011;7693;49.266;7.104;2023-05-25T06:59:25;8.80;;;3.47;;
15183;SDS011;7693;49.266;7.104;2023-05-25T07:01:51;8.63;;;3.63;;
15183;SDS011;7693;49.266;7.104;2023-05-25T07:04:16;5.63;;;4.07;;
15183;SDS011;7693;49.266;7.104;2023-05-25T07:06:42;4.30;;;3.50;;
15183;SDS011;7693;49.266;7.104;2023-05-25T07:09:07;7.47;;;3.53;;
15183;SDS011;7693;49.266;7.104;2023-05-25T07:11:34;4.97;;;3.40;;
15183;SDS011;7693;49.266;7.104;2023-05-25T07:13:59;5.43;;;3.60;;
15183;SDS011;7693;49.266;7.104;2023-05-25T07:16:25;6.67;;;3.63;;
15183;SDS011;7693;49.266;7.104;2023-05-25T07:18:51;9.37;;;4.00;;
15183;SDS011;7693;49.266;7.104;2023-05-25T07:21:16;7.93;;;3.70;;
15183;SDS011;7693;49.266;7.104;2023-05-25T07:23:42;3.63;;;3.33;;
15183;SDS011;7693;49.266;7.104;2023-05-25T07:26:07;5.40;;;3.47;;
15183;SDS011;7693;49.266;7.104;2023-05-25T07:28:33;3.83;;;3.50;;
15183;SDS011;7693;49.266;7.104;2023-05-25T07:30:59;7.57;;;4.07;;
15183;SDS011;7693;49.266;7.104;2023-05-25T07:33:25;5.93;;;4.00;;
15183;SDS011;7693;49.266;7.104;2023-05-25T07:35:50;4.83;;;3.43;;
15183;SDS011;7693;49.266;7.104;2023-05-25T07:38:16;6.67;;;3.77;;
15183;SDS011;7693;49.266;7.104;2023-05-25T07:40:42;5.85;;;3.55;;
15183;SDS011;7693;49.266;7.104;2023-05-25T07:43:08;5.65;;;3.35;;
15183;SDS011;7693;49.266;7.104;2023-05-25T07:45:34;5.60;;;3.92;;
15183;SDS011;7693;49.266;7.104;2023-05-25T07:47:59;6.45;;;3.42;;
15183;SDS011;7693;49.266;7.104;2023-05-25T07:50:25;6.32;;;3.65;;
15183;SDS011;7693;49.266;7.104;2023-05-25T07:52:51;4.72;;;3.30;;
15183;SDS011;7693;49.266;7.104;2023-05-25T07:55:16;7.25;;;3.53;;
15183;SDS011;7693;49.266;7.104;2023-05-25T07:57:43;4.95;;;3.25;;
15183;SDS011;7693;49.266;7.104;2023-05-25T08:00:09;7.13;;;3.35;;
15183;SDS011;7693;49.266;7.104;2023-05-25T08:02:35;8.38;;;3.33;;
15183;SDS011;7693;49.266;7.104;2023-05-25T08:05:01;8.18;;;3.55;;
15183;SDS011;7693;49.266;7.104;2023-05-25T08:07:30;5.15;;;3.40;;
15183;SDS011;7693;49.266;7.104;2023-05-25T13:17:00;3.47;;;3.17;;
15183;SDS011;7693;49.266;7.104;2023-05-25T13:19:26;4.10;;;3.33;;
15183;SDS011;7693;49.266;7.104;2023-05-25T13:21:52;5.30;;;3.33;;
15183;SDS011;7693;49.266;7.104;2023-05-25T13:24:19;4.43;;;3.55;;
15183;SDS011;7693;49.266;7.104;2023-05-25T13:26:45;3.72;;;3.10;;
15183;SDS011;7693;49.266;7.104;2023-05-25T13:29:11;6.25;;;3.15;;
15183;SDS011;7693;49.266;7.104;2023-05-25T13:31:37;4.75;;;3.50;;
15183;SDS011;7693;49.266;7.104;2023-05-25T13:34:03;5.97;;;3.50;;
15183;SDS011;7693;49.266;7.104;2023-05-25T13:36:29;4.20;;;3.50;;
15183;SDS011;7693;49.266;7.104;2023-05-25T13:38:56;3.60;;;3.30;;
15183;SDS011;7693;49.266;7.104;2023-05-25T13:41:23;3.85;;;3.53;;
15183;SDS011;7693;49.266;7.104;2023-05-25T13:43:48;4.97;;;3.53;;
15183;SDS011;7693;49.266;7.104;2023-05-25T13:46:14;6.35;;;3.88;;
15183;SDS011;7693;49.266;7.104;2023-05-25T13:48:40;5.32;;;3.80;;
15183;SDS011;7693;49.266;7.104;2023-05-25T13:51:11;3.70;;;3.40;;
15183;SDS011;7693;49.266;7.104;2023-05-25T13:53:40;4.03;;;3.63;;
15183;SDS011;7693;49.266;7.104;2023-05-25T13:56:06;4.45;;;3.72;;
15183;SDS011;7693;49.266;7.104;2023-05-25T13:58:32;3.90;;;3.50;;
15183;SDS011;7693;49.266;7.104;2023-05-25T14:00:58;4.13;;;3.83;;
15183;SDS011;7693;49.266;7.104;2023-05-25T14:03:23;3.90;;;3.33;;
15183;SDS011;7693;49.266;7.104;2023-05-25T14:05:49;4.78;;;3.50;;
15183;SDS011;7693;49.266;7.104;2023-05-25T14:08:14;4.32;;;3.67;;
15183;SDS011;7693;49.266;7.104;2023-05-25T14:10:40;3.72;;;3.28;;
15183;SDS011;7693;49.266;7.104;2023-05-25T14:13:07;6.30;;;3.65;;
15183;SDS011;7693;49.266;7.104;2023-05-25T14:15:33;5.95;;;3.65;;
15183;SDS011;7693;49.266;7.104;2023-05-25T14:17:59;4.35;;;3.80;;
15183;SDS011;7693;49.266;7.104;2023-05-25T14:20:25;3.55;;;3.25;;
15183;SDS011;7693;49.266;7.104;2023-05-25T14:22:51;5.03;;;3.75;;
15183;SDS011;7693;49.266;7.104;2023-05-25T14:25:17;3.97;;;3.40;;
15183;SDS011;7693;49.266;7.104;2023-05-25T14:27:42;4.15;;;3.80;;
15183;SDS011;7693;49.266;7.104;2023-05-25T14:30:08;4.00;;;3.00;;
15183;SDS011;7693;49.266;7.104;2023-05-25T14:32:34;3.70;;;3.38;;
15183;SDS011;7693;49.266;7.104;2023-05-25T14:35:00;3.70;;;3.33;;
15183;SDS011;7693;49.266;7.104;2023-05-25T14:37:25;4.00;;;3.58;;
15183;SDS011;7693;49.266;7.104;2023-05-25T14:39:51;4.10;;;3.55;;
15183;SDS011;7693;49.266;7.104;2023-05-25T14:42:16;3.50;;;3.25;;
15183;SDS011;7693;49.266;7.104;2023-05-25T14:44:42;4.75;;;3.17;;
15183;SDS011;7693;49.266;7.104;2023-05-25T14:47:08;3.53;;;3.10;;
15183;SDS011;7693;49.266;7.104;2023-05-25T14:49:33;5.30;;;3.67;;
15183;SDS011;7693;49.266;7.104;2023-05-25T14:51:59;5.10;;;3.50;;
15183;SDS011;7693;49.266;7.104;2023-05-25T14:54:24;3.47;;;3.15;;
15183;SDS011;7693;49.266;7.104;2023-05-25T14:56:50;5.13;;;3.63;;
15183;SDS011;7693;49.266;7.104;2023-05-25T14:59:16;3.58;;;3.28;;
15183;SDS011;7693;49.266;7.104;2023-05-25T15:01:41;6.00;;;3.40;;
15183;SDS011;7693;49.266;7.104;2023-05-25T15:04:07;5.72;;;3.90;;
15183;SDS011;7693;49.266;7.104;2023-05-25T15:06:33;3.40;;;3.10;;
15183;SDS011;7693;49.266;7.104;2023-05-25T15:08:59;3.83;;;3.42;;
15183;SDS011;7693;49.266;7.104;2023-05-25T15:11:24;3.50;;;3.30;;
15183;SDS011;7693;49.266;7.104;2023-05-25T15:13:50;5.20;;;3.70;;
15183;SDS011;7693;49.266;7.104;2023-05-25T15:16:16;3.42;;;3.22;;
15183;SDS011;7693;49.266;7.104;2023-05-25T15:18:42;3.95;;;3.17;;
15183;SDS011;7693;49.266;7.104;2023-05-25T15:21:08;4.20;;;3.30;;
15183;SDS011;7693;49.266;7.104;2023-05-25T15:23:34;3.30;;;3.10;;
15183;SDS011;7693;49.266;7.104;2023-05-25T15:26:00;3.50;;;3.20;;
15183;SDS011;7693;49.266;7.104;2023-05-25T15:28:31;5.60;;;3.45;;
15183;SDS011;7693;49.266;7.104;2023-05-25T15:30:57;4.50;;;3.22;;
15183;SDS011;7693;49.266;7.104;2023-05-25T15:33:23;3.47;;;3.28;;
15183;SDS011;7693;49.266;7.104;2023-05-25T15:35:49;3.90;;;3.60;;
15183;SDS011;7693;49.266;7.104;2023-05-25T15:38:14;3.50;;;3.20;;
15183;SDS011;7693;49.266;7.104;2023-05-25T15:40:40;5.57;;;3.53;;
15183;SDS011;7693;49.266;7.104;2023-05-25T15:43:05;3.70;;;3.40;;
15183;SDS011;7693;49.266;7.104;2023-05-25T15:45:31;3.25;;;3.00;;
15183;SDS011;7693;49.266;7.104;2023-05-25T15:47:56;4.35;;;3.10;;
15183;SDS011;7693;49.266;7.104;2023-05-25T15:50:22;4.22;;;3.10;;
15183;SDS011;7693;49.266;7.104;2023-05-25T15:52:47;4.38;;;3.40;;
15183;SDS011;7693;49.266;7.104;2023-05-25T15:55:13;3.47;;;3.17;;
15183;SDS011;7693;49.266;7.104;2023-05-25T15:57:39;3.47;;;3.28;;
15183;SDS011;7693;49.266;7.104;2023-05-25T16:00:04;3.55;;;3.13;;
15183;SDS011;7693;49.266;7.104;2023-05-25T16:02:31;4.45;;;3.15;;
15183;SDS011;7693;49.266;7.104;2023-05-25T16:04:57;3.85;;;3.55;;
15183;SDS011;7693;49.266;7.104;2023-05-25T16:07:22;3.47;;;3.15;;
15183;SDS011;7693;49.266;7.104;2023-05-25T16:09:48;3.42;;;3.17;;
15183;SDS011;7693;49.266;7.104;2023-05-25T16:12:13;3.22;;;3.13;;
15183;SDS011;7693;49.266;7.104;2023-05-25T16:14:39;4.35;;;3.40;;
15183;SDS011;7693;49.266;7.104;2023-05-25T16:17:05;4.47;;;3.15;;
15183;SDS011;7693;49.266;7.104;2023-05-25T16:19:31;4.25;;;3.08;;
15183;SDS011;7693;49.266;7.104;2023-05-25T16:21:56;6.05;;;3.40;;
15183;SDS011;7693;49.266;7.104;2023-05-25T16:24:22;5.10;;;3.00;;
15183;SDS011;7693;49.266;7.104;2023-05-25T16:26:48;4.45;;;3.28;;
15183;SDS011;7693;49.266;7.104;2023-05-25T16:29:13;2.97;;;2.88;;
15183;SDS011;7693;49.266;7.104;2023-05-25T16:31:39;5.60;;;3.88;;
15183;SDS011;7693;49.266;7.104;2023-05-25T16:34:04;3.85;;;3.28;;
15183;SDS011;7693;49.266;7.104;2023-05-25T16:36:30;3.90;;;3.53;;
15183;SDS011;7693;49.266;7.104;2023-05-25T16:38:56;3.40;;;3.28;;
15183;SDS011;7693;49.266;7.104;2023-05-25T16:41:22;4.35;;;3.40;;
15183;SDS011;7693;49.266;7.104;2023-05-25T16:43:47;3.95;;;3.58;;
15183;SDS011;7693;49.266;7.104;2023-05-25T16:46:13;3.60;;;3.40;;
15183;SDS011;7693;49.266;7.104;2023-05-25T16:48:38;4.60;;;4.18;;
15183;SDS011;7693;49.266;7.104;2023-05-25T16:51:04;4.07;;;3.67;;
15183;SDS011;7693;49.266;7.104;2023-05-25T16:53:31;4.13;;;3.28;;
15183;SDS011;7693;49.266;7.104;2023-05-25T16:55:56;3.65;;;3.35;;
15183;SDS011;7693;49.266;7.104;2023-05-25T16:58:22;4.30;;;3.55;;
15183;SDS011;7693;49.266;7.104;2023-05-25T17:00:48;4.38;;;3.50;;
15183;SDS011;7693;49.266;7.104;2023-05-25T17:03:14;3.85;;;3.65;;
15183;SDS011;7693;49.266;7.104;2023-05-25T17:05:39;3.40;;;3.20;;
15183;SDS011;7693;49.266;7.104;2023-05-25T17:08:05;3.75;;;3.40;;
15183;SDS011;7693;49.266;7.104;2023-05-25T17:10:30;3.97;;;3.58;;
15183;SDS011;7693;49.266;7.104;2023-05-25T17:12:56;3.35;;;3.05;;
15183;SDS011;7693;49.266;7.104;2023-05-25T17:15:22;3.90;;;3.30;;
15183;SDS011;7693;49.266;7.104;2023-05-25T17:17:47;3.78;;;3.47;;
15183;SDS011;7693;49.266;7.104;2023-05-25T17:20:13;3.60;;;3.38;;
15183;SDS011;7693;49.266;7.104;2023-05-25T17:22:38;4.22;;;3.40;;
15183;SDS011;7693;49.266;7.104;2023-05-25T17:25:05;4.00;;;3.63;;
15183;SDS011;7693;49.266;7.104;2023-05-25T17:27:32;3.67;;;3.33;;
15183;SDS011;7693;49.266;7.104;2023-05-25T17:29:58;3.88;;;3.60;;
15183;SDS011;7693;49.266;7.104;2023-05-25T17:32:24;3.38;;;3.17;;
15183;SDS011;7693;49.266;7.104;2023-05-25T17:34:49;3.60;;;3.30;;
15183;SDS011;7693;49.266;7.104;2023-05-25T17:37:15;3.47;;;3.28;;
15183;SDS011;7693;49.266;7.104;2023-05-25T17:39:41;3.58;;;3.28;;
15183;SDS011;7693;49.266;7.104;2023-05-25T17:42:06;4.25;;;3.53;;
15183;SDS011;7693;49.266;7.104;2023-05-25T17:44:32;5.97;;;3.70;;
15183;SDS011;7693;49.266;7.104;2023-05-25T17:46:58;3.42;;;2.90;;
15183;SDS011;7693;49.266;7.104;2023-05-25T17:49:23;4.18;;;3.17;;
15183;SDS011;7693;49.266;7.104;2023-05-25T17:51:49;3.55;;;2.97;;
15183;SDS011;7693;49.266;7.104;2023-05-25T17:54:15;3.30;;;3.00;;
15183;SDS011;7693;49.266;7.104;2023-05-25T17:56:43;3.53;;;3.33;;
15183;SDS011;7693;49.266;7.104;2023-05-25T17:59:09;3.40;;;3.20;;
15183;SDS011;7693;49.266;7.104;2023-05-25T18:01:35;3.28;;;3.03;;
15183;SDS011;7693;49.266;7.104;2023-05-25T18:04:01;3.95;;;3.70;;
15183;SDS011;7693;49.266;7.104;2023-05-25T18:06:26;6.55;;;3.50;;
15183;SDS011;7693;49.266;7.104;2023-05-25T18:08:52;6.07;;;3.25;;
15183;SDS011;7693;49.266;7.104;2023-05-25T18:11:18;3.50;;;3.20;;
15183;SDS011;7693;49.266;7.104;2023-05-25T18:13:43;3.85;;;3.55;;
15183;SDS011;7693;49.266;7.104;2023-05-25T18:16:09;3.70;;;3.40;;
15183;SDS011;7693;49.266;7.104;2023-05-25T18:18:34;3.65;;;3.40;;
15183;SDS011;7693;49.266;7.104;2023-05-25T18:21:00;4.22;;;3.63;;
15183;SDS011;7693;49.266;7.104;2023-05-25T18:23:25;3.88;;;3.28;;
15183;SDS011;7693;49.266;7.104;2023-05-25T18:25:51;3.92;;;3.58;;
15183;SDS011;7693;49.266;7.104;2023-05-25T18:28:17;4.18;;;3.60;;
15183;SDS011;7693;49.266;7.104;2023-05-25T18:30:46;6.78;;;3.50;;
15183;SDS011;7693;49.266;7.104;2023-05-25T18:33:11;3.80;;;3.60;;
15183;SDS011;7693;49.266;7.104;2023-05-25T18:35:37;4.47;;;3.47;;
15183;SDS011;7693;49.266;7.104;2023-05-25T18:38:03;4.32;;;3.92;;
15183;SDS011;7693;49.266;7.104;2023-05-25T18:40:30;4.45;;;3.67;;
15183;SDS011;7693;49.266;7.104;2023-05-25T18:42:56;4.80;;;3.97;;
15183;SDS011;7693;49.266;7.104;2023-05-25T18:45:21;5.72;;;3.80;;
15183;SDS011;7693;49.266;7.104;2023-05-25T18:47:47;4.20;;;3.90;;
15183;SDS011;7693;49.266;7.104;2023-05-25T18:50:13;4.10;;;3.70;;
15183;SDS011;7693;49.266;7.104;2023-05-25T18:52:39;5.22;;;3.70;;
15183;SDS011;7693;49.266;7.104;2023-05-25T18:55:05;4.88;;;3.65;;
15183;SDS011;7693;49.266;7.104;2023-05-25T18:57:31;3.60;;;3.40;;
15183;SDS011;7693;49.266;7.104;2023-05-25T18:59:57;4.55;;;3.72;;
15183;SDS011;7693;49.266;7.104;2023-05-25T19:02:23;5.28;;;3.80;;
15183;SDS011;7693;49.266;7.104;2023-05-25T19:04:49;4.10;;;3.80;;
15183;SDS011;7693;49.266;7.104;2023-05-25T19:07:14;4.22;;;3.85;;
15183;SDS011;7693;49.266;7.104;2023-05-25T19:09:40;4.32;;;3.92;;
15183;SDS011;7693;49.266;7.104;2023-05-25T19:12:06;4.57;;;4.15;;
15183;SDS011;7693;49.266;7.104;2023-05-25T19:14:32;4.78;;;4.38;;
15183;SDS011;7693;49.266;7.104;2023-05-25T19:16:58;4.45;;;4.05;;
15183;SDS011;7693;49.266;7.104;2023-05-25T19:19:23;4.38;;;3.97;;
15183;SDS011;7693;49.266;7.104;2023-05-25T19:21:49;5.15;;;4.20;;
15183;SDS011;7693;49.266;7.104;2023-05-25T19:24:14;4.60;;;4.20;;
15183;SDS011;7693;49.266;7.104;2023-05-25T19:26:42;5.20;;;4.55;;
15183;SDS011;7693;49.266;7.104;2023-05-25T19:29:08;4.60;;;3.63;;
15183;SDS011;7693;49.266;7.104;2023-05-25T19:31:34;5.10;;;4.47;;
15183;SDS011;7693;49.266;7.104;2023-05-25T19:33:59;4.43;;;4.10;;
15183;SDS011;7693;49.266;7.104;2023-05-25T19:36:26;4.05;;;3.75;;
15183;SDS011;7693;49.266;7.104;2023-05-25T19:38:51;4.25;;;3.90;;
15183;SDS011;7693;49.266;7.104;2023-05-25T19:41:17;6.38;;;4.18;;
15183;SDS011;7693;49.266;7.104;2023-05-25T19:43:42;4.45;;;4.07;;
15183;SDS011;7693;49.266;7.104;2023-05-25T19:46:08;4.85;;;4.35;;
15183;SDS011;7693;49.266;7.104;2023-05-25T19:48:34;5.13;;;4.72;;
15183;SDS011;7693;49.266;7.104;2023-05-25T19:50:59;5.50;;;3.97;;
15183;SDS011;7693;49.266;7.104;2023-05-25T19:53:25;5.72;;;4.10;;
15183;SDS011;7693;49.266;7.104;2023-05-25T19:55:51;4.47;;;3.70;;
15183;SDS011;7693;49.266;7.104;2023-05-25T19:58:16;4.50;;;4.10;;
15183;SDS011;7693;49.266;7.104;2023-05-25T20:00:42;4.07;;;3.67;;
15183;SDS011;7693;49.266;7.104;2023-05-25T20:03:07;5.28;;;4.03;;
15183;SDS011;7693;49.266;7.104;2023-05-25T20:05:33;4.40;;;4.10;;
15183;SDS011;7693;49.266;7.104;2023-05-25T20:07:58;5.13;;;4.20;;
15183;SDS011;7693;49.266;7.104;2023-05-25T20:10:24;6.00;;;4.15;;
15183;SDS011;7693;49.266;7.104;2023-05-25T20:12:50;7.90;;;4.60;;
15183;SDS011;7693;49.266;7.104;2023-05-25T20:15:15;4.78;;;4.38;;
15183;SDS011;7693;49.266;7.104;2023-05-25T20:17:41;7.03;;;4.45;;
15183;SDS011;7693;49.266;7.104;2023-05-25T20:20:07;6.80;;;6.07;;
15183;SDS011;7693;49.266;7.104;2023-05-25T20:22:33;4.72;;;4.43;;
15183;SDS011;7693;49.266;7.104;2023-05-25T20:24:58;5.05;;;4.47;;
15183;SDS011;7693;49.266;7.104;2023-05-25T20:27:25;4.60;;;4.20;;
15183;SDS011;7693;49.266;7.104;2023-05-25T20:29:53;5.72;;;4.40;;
15183;SDS011;7693;49.266;7.104;2023-05-25T20:32:19;5.05;;;4.60;;
15183;SDS011;7693;49.266;7.104;2023-05-25T20:34:45;5.20;;;4.70;;
15183;SDS011;7693;49.266;7.104;2023-05-25T20:37:10;5.25;;;4.85;;
15183;SDS011;7693;49.266;7.104;2023-05-25T20:39:36;5.60;;;4.93;;
15183;SDS011;7693;49.266;7.104;2023-05-25T20:42:02;5.18;;;4.78;;
15183;SDS011;7693;49.266;7.104;2023-05-25T20:44:27;5.47;;;5.05;;
15183;SDS011;7693;49.266;7.104;2023-05-25T20:46:55;5.65;;;5.05;;
15183;SDS011;7693;49.266;7.104;2023-05-25T20:49:21;5.18;;;4.70;;
15183;SDS011;7693;49.266;7.104;2023-05-25T20:51:46;5.68;;;4.82;;
15183;SDS011;7693;49.266;7.104;2023-05-25T20:54:14;5.38;;;4.88;;
15183;SDS011;7693;49.266;7.104;2023-05-25T20:56:40;6.35;;;5.07;;
15183;SDS011;7693;49.266;7.104;2023-05-25T20:59:06;5.35;;;4.95;;
15183;SDS011;7693;49.266;7.104;2023-05-25T21:01:32;7.78;;;4.38;;
15183;SDS011;7693;49.266;7.104;2023-05-25T21:03:58;5.78;;;4.32;;
15183;SDS011;7693;49.266;7.104;2023-05-25T21:06:23;5.32;;;4.82;;
15183;SDS011;7693;49.266;7.104;2023-05-25T21:08:50;5.07;;;4.55;;
15183;SDS011;7693;49.266;7.104;2023-05-25T21:11:16;5.72;;;4.50;;
15183;SDS011;7693;49.266;7.104;2023-05-25T21:13:42;6.57;;;4.72;;
15183;SDS011;7693;49.266;7.104;2023-05-25T21:16:08;6.60;;;4.72;;
15183;SDS011;7693;49.266;7.104;2023-05-25T21:18:33;7.53;;;5.13;;
15183;SDS011;7693;49.266;7.104;2023-05-25T21:20:59;9.18;;;4.80;;
15183;SDS011;7693;49.266;7.104;2023-05-25T21:23:25;6.68;;;5.10;;
15183;SDS011;7693;49.266;7.104;2023-05-25T21:25:52;5.43;;;4.82;;
15183;SDS011;7693;49.266;7.104;2023-05-25T21:28:18;9.23;;;5.22;;
15183;SDS011;7693;49.266;7.104;2023-05-25T21:30:43;6.07;;;5.13;;
15183;SDS011;7693;49.266;7.104;2023-05-25T21:33:10;6.28;;;4.95;;
15183;SDS011;7693;49.266;7.104;2023-05-25T21:35:35;5.50;;;5.00;;
15183;SDS011;7693;49.266;7.104;2023-05-25T21:38:01;6.57;;;4.78;;
15183;SDS011;7693;49.266;7.104;2023-05-25T21:40:26;7.43;;;5.30;;
15183;SDS011;7693;49.266;7.104;2023-05-25T21:42:52;8.45;;;4.68;;
15183;SDS011;7693;49.266;7.104;2023-05-25T21:45:18;7.65;;;5.28;;
15183;SDS011;7693;49.266;7.104;2023-05-25T21:47:44;6.70;;;4.75;;
15183;SDS011;7693;49.266;7.104;2023-05-25T21:50:09;6.63;;;5.05;;
15183;SDS011;7693;49.266;7.104;2023-05-25T21:52:35;5.43;;;4.90;;
15183;SDS011;7693;49.266;7.104;2023-05-25T21:55:01;6.53;;;5.13;;
15183;SDS011;7693;49.266;7.104;2023-05-25T21:57:26;8.30;;;4.95;;
15183;SDS011;7693;49.266;7.104;2023-05-25T21:59:52;6.75;;;5.20;;
15183;SDS011;7693;49.266;7.104;2023-05-25T22:02:18;8.30;;;5.20;;
15183;SDS011;7693;49.266;7.104;2023-05-25T22:04:44;6.15;;;4.82;;
15183;SDS011;7693;49.266;7.104;2023-05-25T22:07:09;14.38;;;5.75;;
15183;SDS011;7693;49.266;7.104;2023-05-25T22:09:35;6.97;;;5.53;;
15183;SDS011;7693;49.266;7.104;2023-05-25T22:12:00;5.97;;;5.30;;
15183;SDS011;7693;49.266;7.104;2023-05-25T22:14:26;9.10;;;5.55;;
15183;SDS011;7693;49.266;7.104;2023-05-25T22:16:52;6.13;;;5.40;;
